Time;durP1;ratioP1;P1;durP2;ratioP2;P2;SDS_P1;SDS_P2;PMS_P1;PMS_P2;Temp;Humidity;BMP_temperature;BMP_pressure;BME280_temperature;BME280_humidity;BME280_pressure;Samples;Min_cycle;Max_cycle;Signal;HPM_P1;HPM_P2
2023/01/12 00:02:14;;;;;;;3.23;1.43;;;7.60;99.90;;;;;;5112547;27;20452;-73
2023/01/12 00:04:42;;;;;;;3.57;1.30;;;7.50;1.00;;;;;;5105954;27;20831;-76
2023/01/12 00:07:13;;;;;;;2.40;1.40;;;7.40;61.80;;;;;;5114281;27;20935;-77
2023/01/12 00:09:41;;;;;;;4.53;1.40;;;7.40;1.00;;;;;;5096117;28;20507;-77
2023/01/12 00:12:11;;;;;;;3.90;1.40;;;7.40;99.90;;;;;;5117518;27;20538;-75
2023/01/12 00:14:39;;;;;;;5.23;2.27;;;7.40;99.90;;;;;;5103737;27;20454;-74
2023/01/12 00:17:10;;;;;;;6.90;1.70;;;7.40;1.00;;;;;;5108118;27;20510;-74
2023/01/12 00:19:39;;;;;;;2.60;1.60;;;7.40;92.70;;;;;;5110330;27;20566;-74
2023/01/12 00:22:10;;;;;;;2.90;1.63;;;7.30;1.00;;;;;;5115749;27;20449;-75
2023/01/12 00:24:42;;;;;;;3.37;1.40;;;7.40;9.00;;;;;;5107614;27;20461;-73
2023/01/12 00:27:13;;;;;;;3.03;1.50;;;7.40;99.90;;;;;;5113260;27;20477;-73
2023/01/12 00:29:41;;;;;;;4.03;1.53;;;7.30;99.90;;;;;;5113614;27;20453;-75
2023/01/12 00:32:12;;;;;;;4.50;1.50;;;7.40;99.90;;;;;;5111859;27;20537;-77
2023/01/12 00:34:40;;;;;;;1.93;1.40;;;7.50;1.00;;;;;;5113740;27;20486;-74
2023/01/12 00:37:09;;;;;;;1.60;1.50;;;7.40;99.90;;;;;;5108297;27;20473;-78
2023/01/12 00:39:37;;;;;;;2.10;1.77;;;7.40;99.90;;;;;;5112860;27;20461;-73
2023/01/12 00:47:44;;;;;;;2.53;1.70;;;7.40;1.00;;;;;;5109443;27;20482;-75
2023/01/12 00:50:12;;;;;;;2.37;1.30;;;7.40;1.00;;;;;;5087732;28;20493;-73
2023/01/12 00:52:41;;;;;;;2.80;1.30;;;7.40;57.60;;;;;;5105101;27;20454;-76
2023/01/12 00:55:09;;;;;;;3.43;1.70;;;7.40;1.00;;;;;;5111617;27;21275;-74
2023/01/12 00:57:39;;;;;;;4.50;1.50;;;7.50;59.70;;;;;;5112249;27;20486;-73
2023/01/12 01:00:09;;;;;;;2.93;1.20;;;7.40;1.00;;;;;;5107389;27;20523;-75
2023/01/12 01:02:37;;;;;;;2.87;1.50;;;7.50;1.00;;;;;;5083894;27;20449;-74
2023/01/12 01:05:06;;;;;;;4.40;1.53;;;7.40;99.90;;;;;;5113649;27;20904;-74
2023/01/12 01:07:34;;;;;;;1.30;1.20;;;7.30;1.00;;;;;;5113860;27;20507;-73
2023/01/12 01:10:02;;;;;;;5.43;1.40;;;7.40;99.90;;;;;;5112880;27;20453;-74
2023/01/12 01:12:30;;;;;;;4.80;1.50;;;7.40;1.00;;;;;;5118801;27;20487;-74
2023/01/12 01:15:00;;;;;;;1.70;1.30;;;7.40;1.00;;;;;;5108034;27;20461;-77
2023/01/12 01:17:28;;;;;;;1.50;1.40;;;7.40;99.90;;;;;;5097101;27;20821;-75
2023/01/12 01:19:56;;;;;;;6.50;2.47;;;7.40;1.00;;;;;;5112020;27;20500;-74
2023/01/12 01:22:24;;;;;;;4.47;2.07;;;7.30;1.00;;;;;;5092074;27;20533;-79
2023/01/12 01:24:53;;;;;;;4.07;1.40;;;7.40;13.50;;;;;;5113577;27;20499;-75
2023/01/12 01:27:21;;;;;;;1.40;1.30;;;7.40;1.00;;;;;;5106422;27;20528;-73
2023/01/12 01:29:49;;;;;;;4.60;1.50;;;7.40;99.90;;;;;;5114564;27;20450;-74
2023/01/12 01:32:18;;;;;;;5.47;1.60;;;7.40;1.00;;;;;;5108809;27;20520;-74
2023/01/12 01:34:47;;;;;;;3.47;1.80;;;7.40;1.00;;;;;;5109519;27;20460;-75
2023/01/12 01:37:15;;;;;;;2.83;1.70;;;7.40;1.00;;;;;;5110568;27;20484;-75
2023/01/12 01:39:43;;;;;;;3.70;1.30;;;7.40;99.90;;;;;;5109194;27;20526;-74
2023/01/12 01:42:26;;;;;;;1.90;1.80;;;7.50;12.40;;;;;;5106639;27;20437;-78
2023/01/12 01:44:57;;;;;;;2.33;1.40;;;7.40;99.90;;;;;;5110907;27;20525;-74
2023/01/12 01:47:34;;;;;;;2.00;1.40;;;7.40;29.00;;;;;;5107960;27;20488;-74
2023/01/12 01:50:12;;;;;;;2.10;1.53;;;7.40;99.90;;;;;;5108129;27;20524;-74
2023/01/12 01:52:44;;;;;;;3.50;1.30;;;7.40;90.60;;;;;;5114043;27;20464;-74
2023/01/12 01:55:16;;;;;;;3.57;1.60;;;7.40;99.90;;;;;;5108500;27;21023;-76
2023/01/12 01:57:48;;;;;;;1.80;1.47;;;7.50;99.90;;;;;;5078479;28;20479;-78
2023/01/12 02:00:17;;;;;;;1.67;1.30;;;7.60;1.00;;;;;;5111385;28;20971;-77
2023/01/12 02:02:48;;;;;;;2.17;1.50;;;7.60;99.90;;;;;;5108552;28;20470;-77
2023/01/12 02:05:19;;;;;;;1.60;1.23;;;7.60;99.90;;;;;;5111306;28;21803;-76
2023/01/12 02:07:48;;;;;;;2.20;1.20;;;7.60;1.00;;;;;;5082074;28;20825;-76
2023/01/12 02:10:17;;;;;;;2.43;1.70;;;7.60;99.90;;;;;;5111994;28;20538;-77
2023/01/12 02:18:29;;;;;;;1.53;1.17;;;7.60;99.90;;;;;;5112463;28;20991;-74
2023/01/12 02:21:11;;;;;;;3.00;1.40;;;7.50;1.00;;;;;;5106592;28;20459;-73
2023/01/12 02:24:23;;;;;;;2.80;1.73;;;7.60;5.90;;;;;;5106766;28;20577;-77
2023/01/12 02:27:31;;;;;;;5.30;1.50;;;7.50;29.20;;;;;;5111681;27;20471;-74
2023/01/12 02:30:39;;;;;;;3.37;1.60;;;7.50;4.30;;;;;;5114090;27;20452;-73
2023/01/12 02:33:30;;;;;;;2.23;1.50;;;7.50;1.00;;;;;;5113242;27;21223;-77
2023/01/12 02:36:05;;;;;;;4.20;1.57;;;7.50;99.90;;;;;;5101069;27;20493;-75
2023/01/12 02:38:37;;;;;;;4.10;1.60;;;7.60;29.10;;;;;;5094795;27;20703;-76
2023/01/12 02:41:18;;;;;;;2.43;1.37;;;7.50;99.90;;;;;;5114245;27;20540;-73
2023/01/12 02:43:45;;;;;;;2.80;1.30;;;7.50;99.90;;;;;;5107451;27;20442;-75
2023/01/12 02:46:20;;;;;;;2.60;1.30;;;7.50;1.00;;;;;;5115834;27;20468;-77
2023/01/12 02:48:54;;;;;;;4.63;1.80;;;7.50;1.00;;;;;;5116067;27;20481;-76
2023/01/12 02:51:30;;;;;;;4.13;1.40;;;7.40;99.90;;;;;;5108099;27;20478;-73
2023/01/12 02:54:02;;;;;;;1.83;1.70;;;7.40;99.90;;;;;;5107638;27;20968;-73
2023/01/12 02:56:33;;;;;;;3.70;1.40;;;7.40;99.90;;;;;;5102854;27;20845;-75
2023/01/12 02:59:07;;;;;;;1.53;1.40;;;7.40;1.00;;;;;;5119199;27;20518;-74
2023/01/12 03:01:37;;;;;;;1.70;1.60;;;7.50;99.90;;;;;;5115428;27;20450;-73
2023/01/12 03:04:09;;;;;;;5.87;1.40;;;7.50;1.00;;;;;;5111241;27;20445;-74
2023/01/12 03:06:40;;;;;;;2.00;1.60;;;7.50;25.90;;;;;;5110114;27;20563;-73
2023/01/12 03:09:09;;;;;;;5.70;1.50;;;7.50;1.00;;;;;;5108714;27;20489;-76
2023/01/12 03:11:40;;;;;;;9.00;2.43;;;7.50;1.00;;;;;;5115285;27;20870;-74
2023/01/12 03:14:11;;;;;;;3.17;1.50;;;7.50;29.70;;;;;;5109719;27;20501;-74
2023/01/12 03:16:40;;;;;;;3.77;1.60;;;7.50;1.00;;;;;;5107422;27;20445;-74
2023/01/12 03:19:14;;;;;;;3.63;1.63;;;7.50;66.60;;;;;;5112885;27;20464;-77
2023/01/12 03:21:48;;;;;;;2.87;1.50;;;7.60;99.90;;;;;;5114514;27;20518;-73
2023/01/12 03:24:19;;;;;;;3.20;1.60;;;7.50;1.00;;;;;;5114793;27;20471;-74
2023/01/12 03:26:51;;;;;;;3.87;1.30;;;7.50;1.00;;;;;;5113327;27;20562;-75
2023/01/12 03:29:23;;;;;;;2.67;1.47;;;7.50;99.90;;;;;;5110331;27;20483;-74
2023/01/12 03:31:52;;;;;;;3.00;1.40;;;7.60;1.00;;;;;;5114319;27;20457;-77
2023/01/12 03:34:21;;;;;;;4.30;1.37;;;7.50;99.90;;;;;;5109141;27;20959;-74
2023/01/12 03:36:57;;;;;;;2.23;1.73;;;7.40;1.00;;;;;;5113517;27;20450;-78
2023/01/12 03:39:33;;;;;;;4.80;1.30;;;7.50;99.90;;;;;;5113486;27;20492;-74
2023/01/12 03:42:09;;;;;;;5.00;1.93;;;7.50;99.90;;;;;;5088499;28;20482;-73
2023/01/12 03:44:41;;;;;;;3.00;2.00;;;7.50;1.00;;;;;;5112568;27;20460;-74
2023/01/12 03:47:13;;;;;;;2.87;1.37;;;7.50;1.00;;;;;;5106892;27;21055;-75
2023/01/12 03:49:47;;;;;;;7.07;1.50;;;7.60;99.90;;;;;;5108276;27;20506;-73
2023/01/12 03:52:17;;;;;;;4.23;1.67;;;7.50;1.00;;;;;;5112716;27;20472;-74
2023/01/12 03:54:47;;;;;;;8.00;1.73;;;7.60;1.00;;;;;;5105746;27;20495;-73
2023/01/12 03:57:16;;;;;;;4.10;1.50;;;7.60;99.90;;;;;;5110666;27;20571;-74
2023/01/12 03:59:44;;;;;;;2.43;1.20;;;7.50;1.00;;;;;;5111150;27;20618;-77
2023/01/12 04:02:13;;;;;;;3.00;1.90;;;7.60;99.90;;;;;;5096521;27;20455;-73
2023/01/12 04:04:42;;;;;;;3.90;1.40;;;7.50;99.90;;;;;;5114452;27;20518;-78
2023/01/12 04:07:10;;;;;;;6.40;2.07;;;7.50;1.00;;;;;;5113514;27;20561;-73
2023/01/12 04:09:38;;;;;;;8.17;2.13;;;7.60;1.00;;;;;;5114045;27;21303;-73
2023/01/12 04:12:12;;;;;;;4.83;1.67;;;7.60;99.90;;;;;;5110042;27;20455;-74
2023/01/12 04:14:42;;;;;;;3.87;1.43;;;7.60;99.90;;;;;;5104795;27;20461;-72
2023/01/12 04:17:15;;;;;;;3.40;1.87;;;7.60;99.90;;;;;;5106899;27;20484;-74
2023/01/12 04:19:44;;;;;;;5.33;1.70;;;7.60;1.00;;;;;;5112381;27;20612;-73
2023/01/12 04:25:01;;;;;;;9.80;3.40;;;7.50;99.90;;;;;;5111731;27;20444;-75
2023/01/12 04:27:29;;;;;;;3.07;1.80;;;7.60;68.50;;;;;;5111954;27;20560;-74
2023/01/12 04:29:57;;;;;;;3.73;1.70;;;7.50;97.40;;;;;;5108750;27;20447;-73
2023/01/12 04:32:25;;;;;;;4.50;1.50;;;7.50;28.70;;;;;;5109608;27;20482;-74
2023/01/12 04:34:55;;;;;;;3.30;1.77;;;7.60;99.90;;;;;;5116357;27;20982;-76
2023/01/12 04:37:23;;;;;;;3.53;1.80;;;7.50;99.90;;;;;;5110846;27;20474;-75
2023/01/12 04:39:51;;;;;;;1.53;1.20;;;7.60;1.00;;;;;;5115287;27;20454;-76
2023/01/12 04:45:06;;;;;;;6.30;2.17;;;7.60;1.00;;;;;;5108006;27;20470;-75
2023/01/12 04:47:34;;;;;;;3.73;1.67;;;7.60;99.90;;;;;;5113241;27;20480;-74
2023/01/12 04:50:04;;;;;;;3.57;1.70;;;7.70;99.90;;;;;;5112625;27;20508;-74
2023/01/12 04:52:33;;;;;;;3.97;1.37;;;7.60;99.90;;;;;;5107667;27;20455;-73
2023/01/12 04:55:01;;;;;;;3.30;2.03;;;7.60;1.00;;;;;;5108536;27;20490;-75
2023/01/12 04:57:29;;;;;;;4.27;1.60;;;7.50;99.90;;;;;;5116159;27;20478;-78
2023/01/12 04:59:57;;;;;;;2.50;1.50;;;7.50;99.90;;;;;;5112240;27;20545;-77
2023/01/12 05:02:27;;;;;;;4.83;1.40;;;7.50;1.00;;;;;;5097152;27;20515;-76
2023/01/12 05:04:55;;;;;;;3.07;1.53;;;7.60;99.90;;;;;;5108040;27;20535;-74
2023/01/12 05:07:24;;;;;;;4.93;2.13;;;7.60;1.00;;;;;;5113552;27;20460;-73
2023/01/12 05:12:37;;;;;;;2.90;1.67;;;7.70;1.00;;;;;;5085845;28;20461;-75
2023/01/12 05:15:07;;;;;;;2.00;1.50;;;7.60;38.20;;;;;;5107396;27;20447;-74
2023/01/12 05:17:35;;;;;;;4.60;1.70;;;7.60;99.90;;;;;;5105159;27;20561;-74
2023/01/12 05:20:03;;;;;;;4.90;2.23;;;7.60;99.90;;;;;;5103580;27;21004;-75
2023/01/12 05:22:33;;;;;;;3.83;1.50;;;7.60;99.90;;;;;;5108243;27;20473;-74
2023/01/12 05:25:01;;;;;;;6.10;1.90;;;7.60;99.90;;;;;;5098203;27;20478;-75
2023/01/12 05:27:29;;;;;;;2.97;1.57;;;7.80;1.00;;;;;;5101409;27;20483;-75
2023/01/12 05:29:58;;;;;;;5.20;1.90;;;7.60;1.00;;;;;;5109944;27;20449;-77
2023/01/12 05:32:26;;;;;;;4.60;1.70;;;7.70;99.90;;;;;;5117859;27;20488;-73
2023/01/12 05:34:54;;;;;;;6.50;1.73;;;7.70;99.90;;;;;;5112957;27;20579;-74
2023/01/12 05:37:22;;;;;;;4.43;1.63;;;7.70;1.00;;;;;;5099410;28;20475;-75
2023/01/12 05:39:52;;;;;;;9.27;2.33;;;7.70;99.90;;;;;;5104861;27;20460;-76
2023/01/12 05:45:07;;;;;;;6.60;1.80;;;7.70;28.90;;;;;;5110851;27;20474;-76
2023/01/12 05:47:35;;;;;;;8.40;2.10;;;7.70;1.00;;;;;;5112525;27;20462;-75
2023/01/12 05:50:03;;;;;;;3.53;1.93;;;7.60;1.00;;;;;;5106428;27;20556;-75
2023/01/12 05:52:31;;;;;;;3.30;1.43;;;7.70;1.00;;;;;;5112625;27;20504;-80
2023/01/12 05:55:01;;;;;;;4.90;1.40;;;7.70;1.00;;;;;;5109949;28;20503;-75
2023/01/12 05:57:30;;;;;;;4.33;1.43;;;7.80;1.00;;;;;;5108101;28;20474;-74
2023/01/12 05:59:58;;;;;;;6.83;1.97;;;7.80;1.00;;;;;;5107772;28;20950;-74
2023/01/12 06:02:27;;;;;;;4.20;1.60;;;7.80;99.90;;;;;;5121893;27;20475;-77
2023/01/12 06:04:55;;;;;;;11.27;2.07;;;7.80;1.00;;;;;;5126712;27;20446;-75
2023/01/12 06:07:23;;;;;;;3.60;1.40;;;7.70;99.90;;;;;;5116791;27;20461;-78
2023/01/12 06:09:52;;;;;;;8.47;1.80;;;7.70;1.00;;;;;;5119672;27;20459;-81
2023/01/12 06:15:07;;;;;;;5.17;2.10;;;7.60;99.90;;;;;;5122940;27;20519;-74
2023/01/12 06:17:35;;;;;;;9.47;1.87;;;7.60;99.90;;;;;;5123487;27;20471;-77
2023/01/12 06:20:05;;;;;;;5.18;2.05;;;7.60;99.90;;;;;;5089232;27;20536;-76
2023/01/12 06:22:33;;;;;;;6.00;2.23;;;7.60;99.90;;;;;;5089709;27;20218;-76
2023/01/12 06:25:01;;;;;;;3.00;2.43;;;7.60;99.90;;;;;;5101175;27;20515;-77
2023/01/12 06:27:34;;;;;;;5.30;1.60;;;7.70;99.90;;;;;;5110841;27;20532;-75
2023/01/12 06:30:02;;;;;;;2.13;1.80;;;7.70;99.90;;;;;;5112450;27;20526;-75
2023/01/12 06:32:30;;;;;;;5.23;1.53;;;7.70;29.40;;;;;;5097892;27;20966;-74
2023/01/12 06:35:02;;;;;;;5.67;1.30;;;7.70;99.90;;;;;;5109100;27;20540;-77
2023/01/12 06:37:45;;;;;;;3.27;1.40;;;7.70;99.90;;;;;;5111596;27;20552;-75
2023/01/12 06:40:13;;;;;;;2.20;1.60;;;7.50;1.00;;;;;;5109243;27;20455;-74
2023/01/12 06:42:43;;;;;;;4.17;2.20;;;7.70;99.90;;;;;;5113853;27;20944;-76
2023/01/12 06:45:11;;;;;;;5.13;1.97;;;7.60;1.00;;;;;;5119208;27;20448;-80
2023/01/12 06:47:47;;;;;;;4.10;1.50;;;7.50;1.00;;;;;;5113646;27;20558;-79
2023/01/12 06:50:16;;;;;;;2.93;1.50;;;7.50;99.90;;;;;;5114608;27;20456;-75
2023/01/12 06:52:45;;;;;;;2.27;1.60;;;7.50;1.00;;;;;;5111864;27;20495;-76
2023/01/12 06:55:13;;;;;;;4.33;1.20;;;7.60;1.00;;;;;;5109270;27;20948;-74
2023/01/12 06:57:43;;;;;;;8.07;1.40;;;7.60;99.90;;;;;;5116251;27;20481;-75
2023/01/12 07:00:12;;;;;;;3.33;1.47;;;7.60;99.90;;;;;;5115482;27;20490;-75
2023/01/12 07:02:40;;;;;;;2.80;1.47;;;7.60;99.90;;;;;;5114428;27;20454;-75
2023/01/12 07:05:09;;;;;;;4.30;1.40;;;7.60;99.90;;;;;;5100031;27;20453;-74
2023/01/12 07:07:37;;;;;;;11.23;3.03;;;7.70;99.90;;;;;;5115674;27;21078;-74
2023/01/12 07:10:08;;;;;;;2.70;1.37;;;7.60;1.00;;;;;;5117094;27;20479;-74
2023/01/12 07:12:36;;;;;;;16.93;2.43;;;7.70;1.00;;;;;;5081396;28;20444;-78
2023/01/12 07:15:06;;;;;;;7.40;1.60;;;7.70;4.50;;;;;;5112418;27;20478;-76
2023/01/12 07:17:35;;;;;;;2.60;1.30;;;7.70;1.00;;;;;;5111483;27;20460;-74
2023/01/12 07:20:03;;;;;;;5.07;2.20;;;7.70;1.00;;;;;;5093709;27;21091;-74
2023/01/12 07:22:31;;;;;;;4.93;1.50;;;7.60;1.00;;;;;;5106574;27;20541;-74
2023/01/12 07:24:59;;;;;;;3.27;2.00;;;7.60;99.90;;;;;;5112902;27;20478;-74
2023/01/12 07:27:27;;;;;;;2.60;1.90;;;7.70;1.00;;;;;;5092956;27;20474;-76
2023/01/12 07:29:55;;;;;;;2.50;1.70;;;7.70;99.90;;;;;;5111749;27;20465;-74
2023/01/12 07:32:28;;;;;;;1.80;1.37;;;7.80;39.80;;;;;;5112408;27;20438;-75
2023/01/12 07:34:56;;;;;;;4.30;1.73;;;7.70;99.90;;;;;;5108416;27;21190;-75
2023/01/12 07:37:24;;;;;;;2.60;1.23;;;7.80;1.00;;;;;;5109185;27;20487;-76
2023/01/12 07:39:52;;;;;;;4.10;1.27;;;7.70;1.00;;;;;;5109155;27;20481;-78
2023/01/12 07:42:23;;;;;;;2.80;1.77;;;7.80;99.90;;;;;;5105450;27;20549;-76
2023/01/12 07:44:51;;;;;;;2.57;1.13;;;7.80;1.00;;;;;;5110428;27;20454;-75
2023/01/12 07:47:20;;;;;;;5.33;1.50;;;7.80;54.60;;;;;;5106763;27;20483;-74
2023/01/12 07:49:49;;;;;;;4.00;2.37;;;7.80;99.90;;;;;;5105432;27;20455;-80
2023/01/12 07:52:18;;;;;;;5.20;1.23;;;7.70;99.40;;;;;;5107049;27;20476;-75
2023/01/12 07:54:46;;;;;;;1.97;1.50;;;7.80;99.90;;;;;;5087441;28;20884;-80
2023/01/12 07:57:14;;;;;;;3.80;1.70;;;7.90;1.00;;;;;;5107580;27;20572;-80
2023/01/12 07:59:42;;;;;;;3.00;1.30;;;7.90;99.90;;;;;;5106921;27;21111;-80
2023/01/12 08:02:15;;;;;;;6.50;1.30;;;7.90;99.90;;;;;;5106216;27;20484;-76
2023/01/12 08:04:43;;;;;;;4.67;1.50;;;7.80;99.90;;;;;;5101834;27;20453;-75
2023/01/12 08:07:13;;;;;;;3.70;1.40;;;7.90;1.00;;;;;;5097964;27;20471;-78
2023/01/12 08:09:42;;;;;;;2.73;1.30;;;7.90;99.90;;;;;;5112415;27;20456;-74
2023/01/12 08:12:10;;;;;;;3.10;1.87;;;8.00;1.00;;;;;;5110685;27;20453;-75
2023/01/12 08:14:41;;;;;;;2.73;1.10;;;8.00;99.90;;;;;;5113936;27;20475;-79
2023/01/12 08:17:13;;;;;;;4.77;1.63;;;7.90;99.90;;;;;;5118633;27;20484;-76
2023/01/12 08:19:47;;;;;;;3.00;2.00;;;7.90;1.00;;;;;;5108641;27;20555;-75
2023/01/12 08:22:23;;;;;;;3.40;1.63;;;7.90;1.00;;;;;;5105457;27;20541;-74
2023/01/12 08:24:56;;;;;;;3.23;1.40;;;8.00;1.00;;;;;;5100963;27;20976;-77
2023/01/12 08:27:27;;;;;;;2.93;1.40;;;7.80;1.00;;;;;;5106590;27;20518;-77
2023/01/12 08:29:57;;;;;;;2.17;1.33;;;7.80;99.90;;;;;;5107258;27;20466;-76
2023/01/12 08:32:27;;;;;;;3.60;1.30;;;7.90;99.90;;;;;;5111527;27;20470;-76
2023/01/12 08:34:59;;;;;;;2.30;1.40;;;8.00;1.00;;;;;;5103829;27;20484;-81
2023/01/12 08:37:31;;;;;;;3.70;1.30;;;8.10;1.00;;;;;;5105467;27;20470;-79
2023/01/12 08:40:00;;;;;;;2.63;1.33;;;7.90;92.90;;;;;;5106630;27;20958;-80
2023/01/12 08:42:29;;;;;;;4.60;1.70;;;8.00;99.90;;;;;;5114273;27;22212;-76
2023/01/12 08:44:59;;;;;;;2.50;1.40;;;8.00;1.00;;;;;;5106717;27;20440;-77
2023/01/12 08:47:29;;;;;;;2.77;1.40;;;7.90;1.00;;;;;;5104397;27;20997;-76
2023/01/12 08:49:59;;;;;;;2.33;1.57;;;7.90;1.00;;;;;;5105571;27;20476;-78
2023/01/12 08:52:30;;;;;;;1.40;1.30;;;7.90;99.90;;;;;;5108310;27;20449;-73
2023/01/12 08:55:00;;;;;;;2.20;1.27;;;7.90;13.60;;;;;;5107556;27;20475;-74
2023/01/12 08:57:28;;;;;;;3.77;1.37;;;7.90;99.90;;;;;;5106819;27;20527;-76
2023/01/12 08:59:56;;;;;;;3.43;1.40;;;7.90;88.40;;;;;;5104181;27;20504;-74
2023/01/12 09:02:25;;;;;;;9.60;1.70;;;7.90;99.10;;;;;;5091402;27;20511;-78
2023/01/12 09:04:54;;;;;;;4.47;1.50;;;7.90;1.00;;;;;;5103904;27;20452;-74
2023/01/12 09:07:22;;;;;;;4.67;1.50;;;7.90;45.20;;;;;;5107680;27;20630;-74
2023/01/12 09:09:50;;;;;;;4.13;2.00;;;7.90;1.00;;;;;;5106795;27;20511;-75
2023/01/12 09:12:20;;;;;;;3.80;1.80;;;7.90;99.90;;;;;;5107938;27;20959;-81
2023/01/12 09:14:52;;;;;;;3.23;2.00;;;7.90;99.90;;;;;;5107341;27;20490;-77
2023/01/12 09:17:21;;;;;;;1.57;1.40;;;7.90;1.00;;;;;;5118077;27;20473;-76
2023/01/12 09:19:50;;;;;;;4.90;1.53;;;8.00;99.90;;;;;;5097015;27;20961;-77
2023/01/12 09:22:18;;;;;;;1.93;1.40;;;8.00;99.90;;;;;;5108465;27;20958;-76
2023/01/12 09:24:46;;;;;;;3.13;1.30;;;8.00;99.90;;;;;;5110837;27;20949;-74
2023/01/12 09:27:14;;;;;;;1.93;1.50;;;8.00;99.90;;;;;;5113220;27;20631;-76
2023/01/12 09:29:43;;;;;;;1.93;1.30;;;8.10;99.90;;;;;;5108314;27;20447;-75
2023/01/12 09:32:12;;;;;;;3.27;1.40;;;8.10;99.90;;;;;;5106192;27;20535;-78
2023/01/12 09:34:40;;;;;;;5.20;1.63;;;8.10;99.90;;;;;;5094228;27;20464;-78
2023/01/12 09:37:08;;;;;;;7.63;1.63;;;8.10;99.90;;;;;;5106995;27;21069;-81
2023/01/12 09:39:36;;;;;;;5.43;1.63;;;8.20;99.90;;;;;;5086182;27;20471;-80
2023/01/12 09:47:47;;;;;;;6.10;1.47;;;8.30;99.90;;;;;;5087155;28;20920;-75
2023/01/12 09:50:20;;;;;;;1.63;1.50;;;8.20;99.90;;;;;;5106562;27;20500;-74
2023/01/12 09:52:53;;;;;;;3.00;1.30;;;8.30;99.90;;;;;;5106923;27;21177;-76
2023/01/12 09:55:23;;;;;;;1.77;1.10;;;8.30;99.90;;;;;;5116221;27;20514;-75
2023/01/12 09:58:21;;;;;;;4.60;1.50;;;8.30;99.90;;;;;;5120144;27;21006;-74
2023/01/12 10:00:54;;;;;;;4.43;1.37;;;8.30;1.00;;;;;;5108121;28;20463;-74
2023/01/12 10:03:28;;;;;;;1.53;1.20;;;8.40;99.90;;;;;;5116624;28;20456;-74
2023/01/12 10:05:59;;;;;;;2.40;1.53;;;8.30;99.90;;;;;;5113268;28;21001;-73
2023/01/12 10:08:34;;;;;;;2.67;1.97;;;8.30;99.90;;;;;;5109686;28;20474;-75
2023/01/12 10:11:17;;;;;;;1.73;1.27;;;8.40;99.90;;;;;;5115010;28;20485;-75
2023/01/12 10:14:21;;;;;;;6.47;1.30;;;8.40;1.00;;;;;;5116378;28;20507;-75
2023/01/12 10:17:02;;;;;;;3.97;1.40;;;8.40;99.90;;;;;;5113539;28;20467;-77
2023/01/12 10:19:40;;;;;;;2.60;2.10;;;8.50;99.90;;;;;;5110976;28;20450;-78
2023/01/12 10:22:35;;;;;;;2.70;1.30;;;8.40;1.00;;;;;;5105505;28;20442;-75
2023/01/12 10:25:24;;;;;;;2.63;1.40;;;8.40;43.50;;;;;;5089451;28;20804;-76
2023/01/12 10:27:54;;;;;;;1.40;1.30;;;8.40;1.00;;;;;;5107366;28;20474;-76
2023/01/12 10:30:28;;;;;;;2.33;1.23;;;8.40;1.00;;;;;;5105976;28;20530;-79
2023/01/12 10:32:58;;;;;;;2.80;1.60;;;8.40;4.90;;;;;;5110635;28;20450;-76
2023/01/12 10:35:26;;;;;;;1.83;1.23;;;8.50;1.00;;;;;;5090969;28;20441;-74
2023/01/12 10:37:56;;;;;;;3.07;1.63;;;8.50;99.90;;;;;;5095646;28;20470;-74
2023/01/12 10:40:28;;;;;;;2.87;1.33;;;8.50;99.90;;;;;;5118856;28;20465;-75
2023/01/12 10:43:20;;;;;;;4.27;1.30;;;8.50;1.00;;;;;;5110056;28;20447;-76
2023/01/12 10:46:04;;;;;;;2.10;1.30;;;8.60;99.90;;;;;;5115704;28;20951;-75
2023/01/12 10:48:35;;;;;;;1.30;1.20;;;8.50;1.00;;;;;;5105537;27;20505;-75
2023/01/12 10:51:06;;;;;;;1.83;1.30;;;8.60;99.90;;;;;;5109624;27;20993;-75
2023/01/12 10:53:43;;;;;;;1.13;1.03;;;8.70;99.90;;;;;;5106563;27;20571;-75
2023/01/12 10:56:23;;;;;;;1.40;1.10;;;8.70;99.90;;;;;;5108839;27;20480;-77
2023/01/12 10:58:54;;;;;;;1.90;1.10;;;8.70;99.60;;;;;;5110703;27;20997;-74
2023/01/12 11:01:22;;;;;;;1.47;1.37;;;8.70;99.90;;;;;;5098723;27;20924;-78
2023/01/12 11:04:04;;;;;;;1.00;0.93;;;8.60;99.90;;;;;;5108565;27;20505;-75
2023/01/12 11:06:32;;;;;;;3.00;1.57;;;8.60;1.00;;;;;;5105931;27;20451;-77
2023/01/12 11:09:18;;;;;;;2.90;0.97;;;8.60;99.90;;;;;;5108985;27;20470;-75
2023/01/12 11:11:46;;;;;;;1.60;1.00;;;8.70;99.90;;;;;;5109667;27;20452;-73
2023/01/12 11:14:31;;;;;;;2.10;1.00;;;8.80;41.30;;;;;;5116063;27;20482;-77
2023/01/12 11:17:26;;;;;;;1.30;1.20;;;8.70;1.00;;;;;;5106842;27;20986;-77
2023/01/12 11:19:59;;;;;;;1.90;1.10;;;8.70;99.90;;;;;;5109824;27;20459;-81
2023/01/12 11:22:31;;;;;;;1.73;1.30;;;8.80;1.00;;;;;;5111556;27;20522;-75
2023/01/12 11:25:03;;;;;;;1.33;1.03;;;8.80;1.00;;;;;;5109711;27;20453;-78
2023/01/12 11:27:39;;;;;;;0.90;0.90;;;8.80;1.00;;;;;;5109546;27;20468;-79
2023/01/12 11:30:17;;;;;;;0.93;0.93;;;8.90;99.90;;;;;;5107494;27;20470;-75
2023/01/12 11:32:50;;;;;;;1.67;1.10;;;8.90;72.10;;;;;;5105771;27;20485;-76
2023/01/12 11:35:29;;;;;;;1.90;0.90;;;8.90;1.00;;;;;;5107033;27;20571;-77
2023/01/12 11:38:01;;;;;;;1.53;0.90;;;8.90;99.90;;;;;;5106826;27;20485;-78
2023/01/12 11:40:32;;;;;;;1.07;1.07;;;8.80;99.90;;;;;;5107432;27;20896;-77
2023/01/12 11:46:04;;;;;;;2.63;1.20;;;8.90;99.90;;;;;;5106024;27;20458;-81
2023/01/12 11:48:38;;;;;;;1.10;1.00;;;8.90;99.90;;;;;;5104015;27;20501;-79
2023/01/12 11:51:15;;;;;;;1.90;1.10;;;8.90;1.00;;;;;;5105740;27;20448;-76
2023/01/12 11:53:45;;;;;;;0.90;0.90;;;8.90;99.90;;;;;;5108195;27;20445;-76
2023/01/12 11:56:49;;;;;;;1.30;1.20;;;8.80;99.90;;;;;;5118535;27;20486;-74
2023/01/12 11:59:23;;;;;;;4.03;1.10;;;8.90;99.90;;;;;;5103189;27;21052;-76
2023/01/12 12:01:59;;;;;;;1.20;1.10;;;8.80;99.90;;;;;;5116134;27;20818;-74
2023/01/12 12:04:43;;;;;;;2.90;1.20;;;8.80;1.00;;;;;;5117018;27;20881;-75
2023/01/12 12:07:26;;;;;;;2.30;1.50;;;8.80;1.00;;;;;;5108403;27;20469;-74
2023/01/12 12:10:26;;;;;;;1.90;1.00;;;8.80;30.60;;;;;;5100785;27;20519;-74
2023/01/12 12:13:15;;;;;;;0.90;0.90;;;8.80;99.90;;;;;;5022929;28;20500;-77
2023/01/12 12:15:53;;;;;;;3.63;1.00;;;8.90;70.00;;;;;;5100923;27;20570;-75
2023/01/12 12:18:37;;;;;;;1.83;1.10;;;8.90;95.70;;;;;;5109028;27;20511;-76
2023/01/12 12:21:16;;;;;;;4.03;1.37;;;9.00;99.90;;;;;;5106868;27;21329;-75
2023/01/12 12:23:58;;;;;;;2.10;1.50;;;9.00;1.00;;;;;;5105019;27;20455;-75
2023/01/12 12:26:30;;;;;;;1.10;1.10;;;9.00;99.90;;;;;;5105739;27;20979;-75
2023/01/12 12:29:13;;;;;;;1.20;1.10;;;9.00;1.00;;;;;;5110877;27;20503;-75
2023/01/12 12:32:11;;;;;;;2.60;1.40;;;9.10;1.00;;;;;;5112669;27;20464;-80
2023/01/12 12:34:59;;;;;;;1.93;1.20;;;9.00;1.00;;;;;;5103045;27;20543;-75
2023/01/12 12:37:41;;;;;;;1.97;1.00;;;9.10;1.00;;;;;;5112021;27;20479;-74
2023/01/12 12:40:21;;;;;;;1.97;1.27;;;9.00;1.00;;;;;;5102639;27;20466;-75
2023/01/12 12:45:53;;;;;;;2.10;1.00;;;9.10;99.90;;;;;;5107135;27;20451;-77
2023/01/12 12:48:30;;;;;;;1.47;1.13;;;9.10;1.00;;;;;;5090245;27;21013;-79
2023/01/12 12:51:02;;;;;;;2.97;1.23;;;9.10;1.00;;;;;;5104072;27;23086;-78
2023/01/12 12:53:34;;;;;;;1.00;1.00;;;9.10;99.90;;;;;;5099907;27;20449;-75
2023/01/12 12:56:07;;;;;;;1.23;1.13;;;9.20;1.00;;;;;;5105027;27;20455;-75
2023/01/12 12:58:43;;;;;;;1.70;1.60;;;9.20;1.00;;;;;;5107539;27;20470;-77
2023/01/12 13:01:59;;;;;;;1.10;1.00;;;9.20;99.90;;;;;;5107069;27;20538;-75
2023/01/12 13:05:01;;;;;;;2.70;1.03;;;9.10;99.90;;;;;;5100805;27;20456;-77
2023/01/12 13:07:36;;;;;;;1.50;1.40;;;9.20;1.00;;;;;;5103126;27;20995;-77
2023/01/12 13:10:29;;;;;;;2.67;1.40;;;9.20;99.90;;;;;;5105281;27;20479;-79
2023/01/12 13:13:22;;;;;;;1.10;1.00;;;9.20;1.00;;;;;;5097989;27;20867;-76
2023/01/12 13:15:51;;;;;;;1.10;1.00;;;9.10;20.70;;;;;;5103923;27;20464;-74
2023/01/12 13:18:41;;;;;;;1.10;1.10;;;9.10;1.00;;;;;;5104016;27;20484;-75
2023/01/12 13:21:28;;;;;;;1.20;1.10;;;9.10;99.90;;;;;;5081558;28;20468;-77
2023/01/12 13:24:22;;;;;;;3.10;1.30;;;9.10;1.00;;;;;;5105548;27;20458;-74
2023/01/12 13:26:52;;;;;;;1.77;1.20;;;9.10;99.90;;;;;;5100579;27;20968;-76
2023/01/12 13:29:43;;;;;;;1.30;1.20;;;9.20;99.90;;;;;;5102813;27;20516;-76
2023/01/12 13:32:40;;;;;;;1.23;1.13;;;9.20;99.90;;;;;;5105265;27;20443;-77
2023/01/12 13:35:47;;;;;;;1.73;1.10;;;9.20;99.90;;;;;;5105020;27;20463;-78
2023/01/12 13:38:20;;;;;;;2.93;1.60;;;9.20;1.00;;;;;;5103475;27;20476;-75
2023/01/12 13:40:48;;;;;;;1.00;1.00;;;9.10;89.10;;;;;;5110661;27;20455;-74
2023/01/12 13:43:26;;;;;;;2.03;1.30;;;9.10;99.90;;;;;;5117019;27;20459;-74
2023/01/12 13:45:58;;;;;;;1.53;1.20;;;9.10;1.00;;;;;;5103696;27;20456;-77
2023/01/12 13:48:28;;;;;;;1.67;1.57;;;9.10;99.90;;;;;;5104766;28;20482;-76
2023/01/12 13:51:01;;;;;;;1.20;1.20;;;9.10;1.00;;;;;;5103355;27;20460;-74
2023/01/12 13:53:31;;;;;;;1.10;1.10;;;9.10;1.00;;;;;;5108055;27;20555;-75
2023/01/12 13:56:02;;;;;;;1.37;1.13;;;9.10;99.90;;;;;;5121906;27;21260;-75
2023/01/12 13:58:38;;;;;;;2.50;1.40;;;9.10;1.00;;;;;;5117551;27;20518;-78
2023/01/12 14:01:17;;;;;;;2.57;1.30;;;9.20;99.90;;;;;;5114490;27;20436;-75
2023/01/12 14:04:01;;;;;;;2.97;1.60;;;9.20;1.00;;;;;;5116775;28;20459;-76
2023/01/12 14:06:40;;;;;;;7.97;1.30;;;9.10;99.90;;;;;;5109554;28;20437;-75
2023/01/12 14:09:18;;;;;;;1.90;1.40;;;9.10;99.90;;;;;;5118779;28;20497;-74